PWSweather.com
Personal Weather Stations
Station Observations
SUNDOWNFARMS
Union Church, Mobile, AL 36695

Union ChurchMobile, AL 36695

Lat: 30.600146, Lon: -88.36420900000002

Elevation: 95

Station Type: ws-1400-ip

Latest ConditionsUpdated 1:46:00 AM CST Monday, Dec 10, 2018
Currently Today's Max Today's Min Today's Average
Temperature 39.0°F3.9°C 39.7°F4.3°C 39.0°F3.9°C 39.5°F4.2°C
Dew Point 36.0°F2.2°C 36.7°F2.6°C 35.8°F2.1°C 36.2°F2.3°C
Winds 3.1 mph NW5.0 kmh NW 10.3 mph -16.6 kmh - - 5.7 mph 9.2 kmh
Wind Gusts 4.9 mph7.9 kmh 12.5 mph20.1 kmh - -
Humidity 89% 89% 86% 88%
Pressure 30.50 in1032.8 mb 30.52 in1033.5 mb 30.50 in1032.8 mb -
Hour Temp Dew Point Humidity Winds Wind Gusts Pressure Precip Precip Rate Daily Precip Total
01:46 AM 39.0°F3.9°C 36.0°F2.2°C 89% 3.1 mph NW5.0 kmh NW 4.9 mph7.9 kmh 30.50 in1032.8 mb 0.00 in0.0 mm 0.00 in0.0 mm 0.00 in0.0 mm
01:45 AM 39.0°F3.9°C 35.8°F2.1°C 88% 4.7 mph NW7.6 kmh NW 4.9 mph7.9 kmh 30.50 in1032.8 mb 0.00 in0.0 mm 0.00 in0.0 mm 0.00 in0.0 mm
01:44 AM 39.0°F3.9°C 35.8°F2.1°C 88% 6.9 mph NW11.1 kmh NW 7.6 mph12.2 kmh 30.51 in1033.2 mb 0.00 in0.0 mm 0.00 in0.0 mm 0.00 in0.0 mm
01:43 AM 39.0°F3.9°C 35.8°F2.1°C 88% 3.4 mph N5.5 kmh N 4.9 mph7.9 kmh 30.50 in1032.8 mb 0.00 in0.0 mm 0.00 in0.0 mm 0.00 in0.0 mm
01:42 AM 39.0°F3.9°C 36.0°F2.2°C 89% 4.5 mph W7.2 kmh W 4.9 mph7.9 kmh 30.51 in1033.2 mb 0.00 in0.0 mm 0.00 in0.0 mm 0.00 in0.0 mm
01:40 AM 39.2°F4.0°C 35.9°F2.2°C 88% 6.5 mph NNW10.5 kmh NNW 7.6 mph12.2 kmh 30.51 in1033.2 mb 0.00 in0.0 mm 0.00 in0.0 mm 0.00 in0.0 mm
01:39 AM 39.2°F4.0°C 35.9°F2.2°C 88% 7.2 mph NW11.6 kmh NW 10.1 mph16.3 kmh 30.51 in1033.2 mb 0.00 in0.0 mm 0.00 in0.0 mm 0.00 in0.0 mm
01:38 AM 39.2°F4.0°C 36.2°F2.3°C 89% 8.7 mph NW14.0 kmh NW 12.5 mph20.1 kmh 30.51 in1033.2 mb 0.00 in0.0 mm 0.00 in0.0 mm 0.00 in0.0 mm
01:37 AM 39.2°F4.0°C 35.9°F2.2°C 88% 4.9 mph WNW7.9 kmh WNW 7.6 mph12.2 kmh 30.51 in1033.2 mb 0.00 in0.0 mm 0.00 in0.0 mm 0.00 in0.0 mm
01:36 AM 39.2°F4.0°C 35.9°F2.2°C 88% 7.2 mph WNW11.6 kmh WNW 10.1 mph16.3 kmh 30.51 in1033.2 mb 0.00 in0.0 mm 0.00 in0.0 mm 0.00 in0.0 mm
01:35 AM 39.2°F4.0°C 35.9°F2.2°C 88% 8.7 mph NW14.0 kmh NW 10.1 mph16.3 kmh 30.51 in1033.2 mb 0.00 in0.0 mm 0.00 in0.0 mm 0.00 in0.0 mm
01:34 AM 39.2°F4.0°C 35.9°F2.2°C 88% 6.3 mph NW10.1 kmh NW 7.6 mph12.2 kmh 30.51 in1033.2 mb 0.00 in0.0 mm 0.00 in0.0 mm 0.00 in0.0 mm
01:33 AM 39.2°F4.0°C 35.9°F2.2°C 88% 5.4 mph NW8.7 kmh NW 7.6 mph12.2 kmh 30.51 in1033.2 mb 0.00 in0.0 mm 0.00 in0.0 mm 0.00 in0.0 mm
01:31 AM 39.2°F4.0°C 36.2°F2.3°C 89% 8.5 mph NW13.7 kmh NW 10.1 mph16.3 kmh 30.51 in1033.2 mb 0.00 in0.0 mm 0.00 in0.0 mm 0.00 in0.0 mm
01:30 AM 39.2°F4.0°C 35.9°F2.2°C 88% 10.3 mph NW16.6 kmh NW 12.5 mph20.1 kmh 30.50 in1032.8 mb 0.00 in0.0 mm 0.00 in0.0 mm 0.00 in0.0 mm
01:29 AM 39.4°F4.1°C 36.1°F2.3°C 88% 5.6 mph W9.0 kmh W 7.6 mph12.2 kmh 30.51 in1033.2 mb 0.00 in0.0 mm 0.00 in0.0 mm 0.00 in0.0 mm
01:28 AM 39.4°F4.1°C 36.1°F2.3°C 88% 6.0 mph W9.7 kmh W 10.1 mph16.3 kmh 30.51 in1033.2 mb 0.00 in0.0 mm 0.00 in0.0 mm 0.00 in0.0 mm
01:27 AM 39.4°F4.1°C 36.4°F2.4°C 89% 3.1 mph W5.0 kmh W 4.9 mph7.9 kmh 30.51 in1033.2 mb 0.00 in0.0 mm 0.00 in0.0 mm 0.00 in0.0 mm
01:26 AM 39.4°F4.1°C 36.1°F2.3°C 88% 4.9 mph WNW7.9 kmh WNW 7.6 mph12.2 kmh 30.51 in1033.2 mb 0.00 in0.0 mm 0.00 in0.0 mm 0.00 in0.0 mm
01:25 AM 39.4°F4.1°C 35.9°F2.2°C 87% 8.7 mph NW14.0 kmh NW 10.1 mph16.3 kmh 30.51 in1033.2 mb 0.00 in0.0 mm 0.00 in0.0 mm 0.00 in0.0 mm
01:24 AM 39.4°F4.1°C 35.9°F2.2°C 87% 4.0 mph W6.4 kmh W 7.6 mph12.2 kmh 30.51 in1033.2 mb 0.00 in0.0 mm 0.00 in0.0 mm 0.00 in0.0 mm
01:22 AM 39.4°F4.1°C 35.9°F2.2°C 87% 7.2 mph NNW11.6 kmh NNW 10.1 mph16.3 kmh 30.50 in1032.8 mb 0.00 in0.0 mm 0.00 in0.0 mm 0.00 in0.0 mm
01:21 AM 39.4°F4.1°C 36.1°F2.3°C 88% 5.6 mph NNW9.0 kmh NNW 7.6 mph12.2 kmh 30.50 in1032.8 mb 0.00 in0.0 mm 0.00 in0.0 mm 0.00 in0.0 mm
01:20 AM 39.4°F4.1°C 35.9°F2.2°C 87% 5.6 mph NNW9.0 kmh NNW 7.6 mph12.2 kmh 30.50 in1032.8 mb 0.00 in0.0 mm 0.00 in0.0 mm 0.00 in0.0 mm
01:19 AM 39.4°F4.1°C 36.1°F2.3°C 88% 6.0 mph W9.7 kmh W 7.6 mph12.2 kmh 30.50 in1032.8 mb 0.00 in0.0 mm 0.00 in0.0 mm 0.00 in0.0 mm
01:18 AM 39.4°F4.1°C 35.9°F2.2°C 87% 4.9 mph N7.9 kmh N 7.6 mph12.2 kmh 30.51 in1033.2 mb 0.00 in0.0 mm 0.00 in0.0 mm 0.00 in0.0 mm
01:17 AM 39.4°F4.1°C 35.9°F2.2°C 87% 5.6 mph NW9.0 kmh NW 7.6 mph12.2 kmh 30.50 in1032.8 mb 0.00 in0.0 mm 0.00 in0.0 mm 0.00 in0.0 mm
01:16 AM 39.4°F4.1°C 36.1°F2.3°C 88% 4.9 mph NNW7.9 kmh NNW 4.9 mph7.9 kmh 30.51 in1033.2 mb 0.00 in0.0 mm 0.00 in0.0 mm 0.00 in0.0 mm
01:15 AM 39.4°F4.1°C 36.1°F2.3°C 88% 4.0 mph N6.4 kmh N 4.9 mph7.9 kmh 30.51 in1033.2 mb 0.00 in0.0 mm 0.00 in0.0 mm 0.00 in0.0 mm
01:13 AM 39.6°F4.2°C 36.1°F2.3°C 87% 4.0 mph NNW6.4 kmh NNW 4.9 mph7.9 kmh 30.51 in1033.2 mb 0.00 in0.0 mm 0.00 in0.0 mm 0.00 in0.0 mm
01:12 AM 39.6°F4.2°C 36.1°F2.3°C 87% 7.2 mph NNW11.6 kmh NNW 10.1 mph16.3 kmh 30.51 in1033.2 mb 0.00 in0.0 mm 0.00 in0.0 mm 0.00 in0.0 mm
01:11 AM 39.6°F4.2°C 36.3°F2.4°C 88% Calm Calm -- 30.50 in1032.8 mb 0.00 in0.0 mm 0.00 in0.0 mm 0.00 in0.0 mm
01:10 AM 39.6°F4.2°C 36.1°F2.3°C 87% 3.8 mph NNW6.1 kmh NNW 4.9 mph7.9 kmh 30.51 in1033.2 mb 0.00 in0.0 mm 0.00 in0.0 mm 0.00 in0.0 mm
01:09 AM 39.6°F4.2°C 36.1°F2.3°C 87% 5.6 mph NW9.0 kmh NW 7.6 mph12.2 kmh 30.52 in1033.5 mb 0.00 in0.0 mm 0.00 in0.0 mm 0.00 in0.0 mm
01:08 AM 39.6°F4.2°C 35.8°F2.1°C 86% 4.9 mph NNW7.9 kmh NNW 4.9 mph7.9 kmh 30.51 in1033.2 mb 0.00 in0.0 mm 0.00 in0.0 mm 0.00 in0.0 mm
01:07 AM 39.6°F4.2°C 36.3°F2.4°C 88% 10.1 mph NW16.3 kmh NW 12.5 mph20.1 kmh 30.50 in1032.8 mb 0.00 in0.0 mm 0.00 in0.0 mm 0.00 in0.0 mm
01:06 AM 39.6°F4.2°C 36.1°F2.3°C 87% 4.7 mph NNW7.6 kmh NNW 7.6 mph12.2 kmh 30.51 in1033.2 mb 0.00 in0.0 mm 0.00 in0.0 mm 0.00 in0.0 mm
01:04 AM 39.6°F4.2°C 35.8°F2.1°C 86% 6.3 mph NW10.1 kmh NW 10.1 mph16.3 kmh 30.51 in1033.2 mb 0.00 in0.0 mm 0.00 in0.0 mm 0.00 in0.0 mm
01:03 AM 39.6°F4.2°C 35.8°F2.1°C 86% 4.9 mph WNW7.9 kmh WNW 7.6 mph12.2 kmh 30.51 in1033.2 mb 0.00 in0.0 mm 0.00 in0.0 mm 0.00 in0.0 mm
01:02 AM 39.6°F4.2°C 36.1°F2.3°C 87% 4.7 mph NNW7.6 kmh NNW 7.6 mph12.2 kmh 30.50 in1032.8 mb 0.00 in0.0 mm 0.00 in0.0 mm 0.00 in0.0 mm
01:01 AM 39.6°F4.2°C 36.3°F2.4°C 88% 4.9 mph NNW7.9 kmh NNW 7.6 mph12.2 kmh 30.51 in1033.2 mb 0.00 in0.0 mm 0.00 in0.0 mm 0.00 in0.0 mm
01:00 AM 39.6°F4.2°C 36.3°F2.4°C 88% 4.7 mph W7.6 kmh W 7.6 mph12.2 kmh 30.51 in1033.2 mb 0.00 in0.0 mm 0.00 in0.0 mm 0.00 in0.0 mm
12:59 AM 39.6°F4.2°C 36.3°F2.4°C 88% 4.7 mph NW7.6 kmh NW 4.9 mph7.9 kmh 30.51 in1033.2 mb 0.00 in0.0 mm 0.00 in0.0 mm 0.00 in0.0 mm
12:58 AM 39.6°F4.2°C 36.1°F2.3°C 87% 5.4 mph WNW8.7 kmh WNW 7.6 mph12.2 kmh 30.51 in1033.2 mb 0.00 in0.0 mm 0.00 in0.0 mm 0.00 in0.0 mm
12:57 AM 39.6°F4.2°C 36.1°F2.3°C 87% 8.7 mph NW14.0 kmh NW 12.5 mph20.1 kmh 30.51 in1033.2 mb 0.00 in0.0 mm 0.00 in0.0 mm 0.00 in0.0 mm
12:55 AM 39.6°F4.2°C 36.3°F2.4°C 88% 6.5 mph NW10.5 kmh NW 10.1 mph16.3 kmh 30.51 in1033.2 mb 0.00 in0.0 mm 0.00 in0.0 mm 0.00 in0.0 mm
12:54 AM 39.6°F4.2°C 36.3°F2.4°C 88% 8.1 mph NW13.0 kmh NW 10.1 mph16.3 kmh 30.51 in1033.2 mb 0.00 in0.0 mm 0.00 in0.0 mm 0.00 in0.0 mm
12:53 AM 39.6°F4.2°C 36.6°F2.6°C 89% 4.7 mph NNW7.6 kmh NNW 4.9 mph7.9 kmh 30.51 in1033.2 mb 0.00 in0.0 mm 0.00 in0.0 mm 0.00 in0.0 mm
12:52 AM 39.6°F4.2°C 36.6°F2.6°C 89% 6.3 mph NW10.1 kmh NW 7.6 mph12.2 kmh 30.51 in1033.2 mb 0.00 in0.0 mm 0.00 in0.0 mm 0.00 in0.0 mm
12:51 AM 39.6°F4.2°C 36.6°F2.6°C 89% 7.8 mph NNW12.6 kmh NNW 10.1 mph16.3 kmh 30.51 in1033.2 mb 0.00 in0.0 mm 0.00 in0.0 mm 0.00 in0.0 mm
12:50 AM 39.6°F4.2°C 36.6°F2.6°C 89% 3.1 mph NNW5.0 kmh NNW 4.9 mph7.9 kmh 30.51 in1033.2 mb 0.00 in0.0 mm 0.00 in0.0 mm 0.00 in0.0 mm
12:49 AM 39.6°F4.2°C 36.6°F2.6°C 89% 5.6 mph NW9.0 kmh NW 7.6 mph12.2 kmh 30.50 in1032.8 mb 0.00 in0.0 mm 0.00 in0.0 mm 0.00 in0.0 mm
12:48 AM 39.6°F4.2°C 36.6°F2.6°C 89% 2.5 mph N4.0 kmh N 2.5 mph4.0 kmh 30.51 in1033.2 mb 0.00 in0.0 mm 0.00 in0.0 mm 0.00 in0.0 mm
12:46 AM 39.6°F4.2°C 36.6°F2.6°C 89% 3.8 mph N6.1 kmh N 7.6 mph12.2 kmh 30.51 in1033.2 mb 0.00 in0.0 mm 0.00 in0.0 mm 0.00 in0.0 mm
12:45 AM 39.6°F4.2°C 36.3°F2.4°C 88% 4.9 mph NNW7.9 kmh NNW 4.9 mph7.9 kmh 30.51 in1033.2 mb 0.00 in0.0 mm 0.00 in0.0 mm 0.00 in0.0 mm
12:44 AM 39.6°F4.2°C 36.3°F2.4°C 88% 3.4 mph NW5.5 kmh NW 4.9 mph7.9 kmh 30.50 in1032.8 mb 0.00 in0.0 mm 0.00 in0.0 mm 0.00 in0.0 mm
12:43 AM 39.6°F4.2°C 36.3°F2.4°C 88% 6.9 mph NNW11.1 kmh NNW 7.6 mph12.2 kmh 30.51 in1033.2 mb 0.00 in0.0 mm 0.00 in0.0 mm 0.00 in0.0 mm
12:42 AM 39.6°F4.2°C 36.3°F2.4°C 88% 6.3 mph N10.1 kmh N 7.6 mph12.2 kmh 30.51 in1033.2 mb 0.00 in0.0 mm 0.00 in0.0 mm 0.00 in0.0 mm
12:41 AM 39.6°F4.2°C 36.3°F2.4°C 88% 6.9 mph NW11.1 kmh NW 7.6 mph12.2 kmh 30.50 in1032.8 mb 0.00 in0.0 mm 0.00 in0.0 mm 0.00 in0.0 mm
12:40 AM 39.6°F4.2°C 36.1°F2.3°C 87% 6.3 mph NNW10.1 kmh NNW 7.6 mph12.2 kmh 30.50 in1032.8 mb 0.00 in0.0 mm 0.00 in0.0 mm 0.00 in0.0 mm
12:39 AM 39.6°F4.2°C 36.3°F2.4°C 88% 3.8 mph NNW6.1 kmh NNW 4.9 mph7.9 kmh 30.51 in1033.2 mb 0.00 in0.0 mm 0.00 in0.0 mm 0.00 in0.0 mm
12:37 AM 39.6°F4.2°C 36.1°F2.3°C 87% 3.4 mph NW5.5 kmh NW 4.9 mph7.9 kmh 30.50 in1032.8 mb 0.00 in0.0 mm 0.00 in0.0 mm 0.00 in0.0 mm
12:36 AM 39.6°F4.2°C 36.3°F2.4°C 88% 7.2 mph NNW11.6 kmh NNW 7.6 mph12.2 kmh 30.50 in1032.8 mb 0.00 in0.0 mm 0.00 in0.0 mm 0.00 in0.0 mm
12:35 AM 39.6°F4.2°C 36.3°F2.4°C 88% 4.7 mph NW7.6 kmh NW 4.9 mph7.9 kmh 30.51 in1033.2 mb 0.00 in0.0 mm 0.00 in0.0 mm 0.00 in0.0 mm
12:34 AM 39.6°F4.2°C 36.3°F2.4°C 88% 6.0 mph NW9.7 kmh NW 7.6 mph12.2 kmh 30.51 in1033.2 mb 0.00 in0.0 mm 0.00 in0.0 mm 0.00 in0.0 mm
12:33 AM 39.6°F4.2°C 36.3°F2.4°C 88% 6.5 mph NW10.5 kmh NW 10.1 mph16.3 kmh 30.51 in1033.2 mb 0.00 in0.0 mm 0.00 in0.0 mm 0.00 in0.0 mm
12:32 AM 39.6°F4.2°C 36.1°F2.3°C 87% 5.4 mph N8.7 kmh N 7.6 mph12.2 kmh 30.50 in1032.8 mb 0.00 in0.0 mm 0.00 in0.0 mm 0.00 in0.0 mm
12:31 AM 39.6°F4.2°C 36.1°F2.3°C 87% 6.5 mph NW10.5 kmh NW 10.1 mph16.3 kmh 30.50 in1032.8 mb 0.00 in0.0 mm 0.00 in0.0 mm 0.00 in0.0 mm
12:30 AM 39.6°F4.2°C 36.3°F2.4°C 88% 8.5 mph N13.7 kmh N 10.1 mph16.3 kmh 30.51 in1033.2 mb 0.00 in0.0 mm 0.00 in0.0 mm 0.00 in0.0 mm
12:28 AM 39.6°F4.2°C 36.1°F2.3°C 87% 8.5 mph NW13.7 kmh NW 10.1 mph16.3 kmh 30.50 in1032.8 mb 0.00 in0.0 mm 0.00 in0.0 mm 0.00 in0.0 mm
12:27 AM 39.6°F4.2°C 36.3°F2.4°C 88% 7.6 mph NW12.2 kmh NW 10.1 mph16.3 kmh 30.50 in1032.8 mb 0.00 in0.0 mm 0.00 in0.0 mm 0.00 in0.0 mm
12:26 AM 39.6°F4.2°C 36.3°F2.4°C 88% 5.6 mph WNW9.0 kmh WNW 7.6 mph12.2 kmh 30.50 in1032.8 mb 0.00 in0.0 mm 0.00 in0.0 mm 0.00 in0.0 mm
12:25 AM 39.6°F4.2°C 36.6°F2.6°C 89% 3.4 mph NW5.5 kmh NW 4.9 mph7.9 kmh 30.51 in1033.2 mb 0.00 in0.0 mm 0.00 in0.0 mm 0.00 in0.0 mm
12:24 AM 39.6°F4.2°C 36.3°F2.4°C 88% 3.1 mph WNW5.0 kmh WNW 4.9 mph7.9 kmh 30.50 in1032.8 mb 0.00 in0.0 mm 0.00 in0.0 mm 0.00 in0.0 mm
12:23 AM 39.6°F4.2°C 36.3°F2.4°C 88% 2.9 mph WSW4.7 kmh WSW 4.9 mph7.9 kmh 30.51 in1033.2 mb 0.00 in0.0 mm 0.00 in0.0 mm 0.00 in0.0 mm
12:22 AM 39.6°F4.2°C 36.3°F2.4°C 88% 4.9 mph W7.9 kmh W 7.6 mph12.2 kmh 30.50 in1032.8 mb 0.00 in0.0 mm 0.00 in0.0 mm 0.00 in0.0 mm
12:21 AM 39.6°F4.2°C 36.3°F2.4°C 88% 6.9 mph NW11.1 kmh NW 10.1 mph16.3 kmh 30.50 in1032.8 mb 0.00 in0.0 mm 0.00 in0.0 mm 0.00 in0.0 mm
12:19 AM 39.6°F4.2°C 36.3°F2.4°C 88% 7.8 mph NW12.6 kmh NW 10.1 mph16.3 kmh 30.51 in1033.2 mb 0.00 in0.0 mm 0.00 in0.0 mm 0.00 in0.0 mm
12:18 AM 39.6°F4.2°C 36.3°F2.4°C 88% 5.4 mph NW8.7 kmh NW 7.6 mph12.2 kmh 30.51 in1033.2 mb 0.00 in0.0 mm 0.00 in0.0 mm 0.00 in0.0 mm
12:17 AM 39.6°F4.2°C 36.3°F2.4°C 88% 6.9 mph NW11.1 kmh NW 7.6 mph12.2 kmh 30.51 in1033.2 mb 0.00 in0.0 mm 0.00 in0.0 mm 0.00 in0.0 mm
12:16 AM 39.6°F4.2°C 36.6°F2.6°C 89% 6.5 mph NW10.5 kmh NW 10.1 mph16.3 kmh 30.51 in1033.2 mb 0.00 in0.0 mm 0.00 in0.0 mm 0.00 in0.0 mm
12:15 AM 39.6°F4.2°C 36.3°F2.4°C 88% 3.1 mph NW5.0 kmh NW 4.9 mph7.9 kmh 30.51 in1033.2 mb 0.00 in0.0 mm 0.00 in0.0 mm 0.00 in0.0 mm
12:14 AM 39.6°F4.2°C 36.3°F2.4°C 88% 9.4 mph NW15.1 kmh NW 12.5 mph20.1 kmh 30.50 in1032.8 mb 0.00 in0.0 mm 0.00 in0.0 mm 0.00 in0.0 mm
12:13 AM 39.7°F4.3°C 36.4°F2.4°C 88% 4.5 mph WNW7.2 kmh WNW 4.9 mph7.9 kmh 30.50 in1032.8 mb 0.00 in0.0 mm 0.00 in0.0 mm 0.00 in0.0 mm
12:12 AM 39.7°F4.3°C 36.4°F2.4°C 88% 5.4 mph NW8.7 kmh NW 7.6 mph12.2 kmh 30.50 in1032.8 mb 0.00 in0.0 mm 0.00 in0.0 mm 0.00 in0.0 mm
12:10 AM 39.7°F4.3°C 36.7°F2.6°C 89% 3.8 mph W6.1 kmh W 4.9 mph7.9 kmh 30.51 in1033.2 mb 0.00 in0.0 mm 0.00 in0.0 mm 0.00 in0.0 mm
12:09 AM 39.7°F4.3°C 36.7°F2.6°C 89% 3.4 mph N5.5 kmh N 4.9 mph7.9 kmh 30.51 in1033.2 mb 0.00 in0.0 mm 0.00 in0.0 mm 0.00 in0.0 mm
12:08 AM 39.7°F4.3°C 36.4°F2.4°C 88% 4.0 mph WNW6.4 kmh WNW 4.9 mph7.9 kmh 30.51 in1033.2 mb 0.00 in0.0 mm 0.00 in0.0 mm 0.00 in0.0 mm
12:07 AM 39.7°F4.3°C 36.7°F2.6°C 89% 2.2 mph NW3.5 kmh NW 4.9 mph7.9 kmh 30.51 in1033.2 mb 0.00 in0.0 mm 0.00 in0.0 mm 0.00 in0.0 mm
12:06 AM 39.7°F4.3°C 36.7°F2.6°C 89% 5.4 mph NW8.7 kmh NW 7.6 mph12.2 kmh 30.50 in1032.8 mb 0.00 in0.0 mm 0.00 in0.0 mm 0.00 in0.0 mm
12:05 AM 39.7°F4.3°C 36.4°F2.4°C 88% 9.4 mph WNW15.1 kmh WNW 10.1 mph16.3 kmh 30.50 in1032.8 mb 0.00 in0.0 mm 0.00 in0.0 mm 0.00 in0.0 mm
12:04 AM 39.7°F4.3°C 36.4°F2.4°C 88% 7.2 mph N11.6 kmh N 10.1 mph16.3 kmh 30.51 in1033.2 mb 0.00 in0.0 mm 0.00 in0.0 mm 0.00 in0.0 mm
12:03 AM 39.7°F4.3°C 36.4°F2.4°C 88% 5.4 mph NW8.7 kmh NW 7.6 mph12.2 kmh 30.50 in1032.8 mb 0.00 in0.0 mm 0.00 in0.0 mm 0.00 in0.0 mm
12:01 AM 39.7°F4.3°C 36.7°F2.6°C 89% 5.6 mph N9.0 kmh N 7.6 mph12.2 kmh 30.50 in1032.8 mb 0.00 in0.0 mm 0.00 in0.0 mm 0.00 in0.0 mm
12:00 AM 39.7°F4.3°C 36.4°F2.4°C 88% 7.6 mph NW12.2 kmh NW 10.1 mph16.3 kmh 30.51 in1033.2 mb 0.00 in0.0 mm 0.00 in0.0 mm 0.00 in0.0 mm